Time;durP1;ratioP1;P1;durP2;ratioP2;P2;SDS_P1;SDS_P2;PMS_P1;PMS_P2;Temp;Humidity;BMP_temperature;BMP_pressure;BME280_temperature;BME280_humidity;BME280_pressure;Samples;Min_cycle;Max_cycle;Signal;HPM_P1;HPM_P2
2023/09/11 00:01:15;;;;;;;7.55;5.72;;;19.60;92.20;;;;;;932677;150;27285;-75
2023/09/11 00:03:42;;;;;;;8.68;6.42;;;19.60;92.50;;;;;;942336;149;27770;-75
2023/09/11 00:06:08;;;;;;;7.80;6.25;;;19.60;93.00;;;;;;929127;151;27341;-75
2023/09/11 00:08:35;;;;;;;6.33;5.72;;;19.50;93.40;;;;;;948101;149;27380;-75
2023/09/11 00:11:01;;;;;;;6.08;5.45;;;19.50;93.80;;;;;;946477;149;27391;-74
2023/09/11 00:13:28;;;;;;;6.92;5.55;;;19.50;94.00;;;;;;941569;149;27381;-75
2023/09/11 00:15:55;;;;;;;9.10;6.05;;;19.50;94.20;;;;;;941144;149;27376;-75
2023/09/11 00:18:21;;;;;;;6.03;5.47;;;19.40;94.40;;;;;;930556;152;27362;-74
2023/09/11 00:20:48;;;;;;;7.67;6.08;;;19.40;94.70;;;;;;935951;148;27440;-75
2023/09/11 00:23:14;;;;;;;7.05;6.17;;;19.40;94.90;;;;;;951332;147;27769;-74
2023/09/11 00:25:41;;;;;;;6.70;5.85;;;19.40;95.30;;;;;;933480;151;27413;-75
2023/09/11 00:28:07;;;;;;;6.45;5.85;;;19.30;95.60;;;;;;942724;149;27334;-75
2023/09/11 00:30:34;;;;;;;6.70;5.92;;;19.30;95.80;;;;;;936834;148;27522;-75
2023/09/11 00:33:01;;;;;;;6.75;5.83;;;19.20;96.20;;;;;;930377;150;27822;-75
2023/09/11 00:35:27;;;;;;;6.83;6.22;;;19.20;96.40;;;;;;959372;146;27357;-75
2023/09/11 00:37:54;;;;;;;6.53;5.78;;;19.20;96.60;;;;;;928575;150;27416;-75
2023/09/11 00:40:20;;;;;;;8.15;5.92;;;19.10;96.80;;;;;;943623;148;27368;-75
2023/09/11 00:42:47;;;;;;;8.60;6.03;;;19.10;97.10;;;;;;950101;147;27328;-75
2023/09/11 00:45:14;;;;;;;6.22;5.72;;;19.10;97.30;;;;;;929037;149;27334;-75
2023/09/11 00:47:41;;;;;;;7.45;5.78;;;19.00;97.50;;;;;;945045;149;27391;-75
2023/09/11 00:50:07;;;;;;;7.00;6.40;;;19.00;97.80;;;;;;942832;149;27454;-75
2023/09/11 00:52:33;;;;;;;6.15;5.55;;;18.90;98.10;;;;;;951655;149;27419;-75
2023/09/11 00:55:00;;;;;;;7.42;6.62;;;18.90;98.40;;;;;;951041;147;27351;-75
2023/09/11 00:57:27;;;;;;;9.88;5.87;;;18.90;99.00;;;;;;952884;146;27328;-75
2023/09/11 00:59:53;;;;;;;6.55;6.05;;;18.80;99.20;;;;;;951817;147;27392;-75
2023/09/11 01:02:20;;;;;;;8.78;5.60;;;18.80;99.40;;;;;;951299;147;27318;-75
2023/09/11 01:04:46;;;;;;;8.80;5.72;;;18.80;99.60;;;;;;945715;149;27289;-75
2023/09/11 01:07:13;;;;;;;8.03;6.03;;;18.80;99.70;;;;;;946013;148;27353;-75
2023/09/11 01:09:39;;;;;;;7.22;6.53;;;18.70;99.90;;;;;;946659;149;27458;-75
2023/09/11 01:12:06;;;;;;;7.30;5.55;;;18.70;99.90;;;;;;944860;149;27490;-75
2023/09/11 01:14:33;;;;;;;8.63;5.87;;;18.70;99.90;;;;;;946380;148;27775;-75
2023/09/11 01:16:59;;;;;;;6.40;5.83;;;18.60;99.90;;;;;;946330;149;27368;-75
2023/09/11 01:19:41;;;;;;;6.05;5.50;;;18.60;99.90;;;;;;943707;148;27451;-75
2023/09/11 01:22:31;;;;;;;6.40;5.80;;;18.60;99.90;;;;;;945826;149;27365;-75
2023/09/11 01:25:34;;;;;;;6.03;5.40;;;18.60;99.90;;;;;;943944;149;27360;-75
2023/09/11 01:28:16;;;;;;;6.92;6.33;;;18.50;99.90;;;;;;945221;149;27349;-75
2023/09/11 01:30:43;;;;;;;6.12;5.53;;;18.50;99.90;;;;;;943476;148;27422;-75
2023/09/11 01:33:09;;;;;;;8.10;6.33;;;18.40;99.90;;;;;;945881;149;27326;-75
2023/09/11 01:35:36;;;;;;;6.55;5.67;;;18.40;99.90;;;;;;945612;149;27369;-76
2023/09/11 01:38:02;;;;;;;8.23;6.22;;;18.40;99.90;;;;;;946077;149;27376;-74
2023/09/11 01:40:29;;;;;;;7.55;6.22;;;18.30;99.90;;;;;;945205;149;27395;-72
2023/09/11 01:42:55;;;;;;;9.13;6.35;;;18.30;99.90;;;;;;946282;148;27389;-74
2023/09/11 01:45:22;;;;;;;7.58;6.35;;;18.30;99.90;;;;;;946158;149;27359;-72
2023/09/11 01:47:50;;;;;;;8.48;6.53;;;18.20;99.90;;;;;;946075;149;27393;-73
2023/09/11 01:50:15;;;;;;;7.60;6.37;;;18.20;99.90;;;;;;947418;147;27269;-73
2023/09/11 01:52:42;;;;;;;7.95;5.95;;;18.20;99.90;;;;;;950719;147;27376;-73
2023/09/11 01:55:08;;;;;;;9.40;6.05;;;18.20;99.90;;;;;;951886;147;27342;-74
2023/09/11 01:57:35;;;;;;;6.85;6.15;;;18.20;99.90;;;;;;951596;147;27372;-72
2023/09/11 02:00:03;;;;;;;5.87;5.37;;;18.20;99.90;;;;;;951587;147;27312;-73
2023/09/11 02:02:29;;;;;;;6.72;6.12;;;18.20;99.90;;;;;;953547;147;27447;-72
2023/09/11 02:04:55;;;;;;;10.48;6.78;;;18.20;99.90;;;;;;945175;147;27351;-74
2023/09/11 02:07:21;;;;;;;6.70;6.10;;;18.20;99.90;;;;;;933846;149;27913;-74
2023/09/11 02:09:48;;;;;;;6.90;6.20;;;18.20;99.90;;;;;;933366;149;27364;-73
2023/09/11 02:12:15;;;;;;;8.23;7.28;;;18.20;99.90;;;;;;931321;149;27421;-72
2023/09/11 02:14:41;;;;;;;9.33;5.85;;;18.20;99.90;;;;;;933823;149;27322;-73
2023/09/11 02:17:08;;;;;;;8.15;6.92;;;18.10;99.90;;;;;;933753;149;27412;-75
2023/09/11 02:19:34;;;;;;;6.67;5.58;;;18.10;99.90;;;;;;929876;150;27446;-72
2023/09/11 02:22:01;;;;;;;6.58;5.58;;;18.10;99.90;;;;;;955831;146;27275;-72
2023/09/11 02:24:27;;;;;;;9.08;5.78;;;18.10;99.90;;;;;;958139;146;27356;-72
2023/09/11 02:26:54;;;;;;;8.95;6.22;;;18.10;99.90;;;;;;945585;146;27296;-75
2023/09/11 02:29:21;;;;;;;6.30;5.42;;;18.10;99.90;;;;;;944180;148;27472;-73
2023/09/11 02:31:47;;;;;;;6.47;5.83;;;18.10;99.90;;;;;;932317;150;27366;-72
2023/09/11 02:34:14;;;;;;;6.72;5.78;;;18.10;99.90;;;;;;947578;147;27308;-74
2023/09/11 02:36:40;;;;;;;7.58;5.97;;;18.10;99.90;;;;;;952841;147;27300;-72
2023/09/11 02:39:07;;;;;;;7.70;6.90;;;18.00;99.90;;;;;;945916;147;27385;-74
2023/09/11 02:41:34;;;;;;;5.85;5.28;;;18.00;99.90;;;;;;932832;150;27459;-73
2023/09/11 02:44:00;;;;;;;6.95;5.20;;;18.00;99.90;;;;;;945542;147;27310;-72
2023/09/11 02:46:27;;;;;;;7.05;5.83;;;18.00;99.90;;;;;;950240;147;27344;-75
2023/09/11 02:48:53;;;;;;;8.95;5.97;;;18.00;99.90;;;;;;942431;149;27349;-75
2023/09/11 02:51:20;;;;;;;5.97;5.35;;;17.90;99.90;;;;;;929528;150;27948;-75
2023/09/11 02:53:47;;;;;;;6.00;5.40;;;17.90;99.90;;;;;;945375;147;27414;-75
2023/09/11 02:56:13;;;;;;;6.03;5.37;;;17.90;99.90;;;;;;931699;150;27337;-75
2023/09/11 02:58:40;;;;;;;8.10;5.40;;;17.90;99.90;;;;;;931791;150;27339;-75
2023/09/11 03:01:06;;;;;;;5.95;5.20;;;17.90;99.90;;;;;;934006;149;27349;-75
2023/09/11 03:03:33;;;;;;;9.65;5.90;;;17.90;99.90;;;;;;933280;149;27453;-75
2023/09/11 03:06:00;;;;;;;7.95;6.33;;;17.90;99.90;;;;;;934379;149;27390;-75
2023/09/11 03:08:26;;;;;;;7.47;6.78;;;17.80;99.90;;;;;;950938;147;27345;-75
2023/09/11 03:10:53;;;;;;;9.78;6.28;;;17.80;99.90;;;;;;932036;150;27439;-75
2023/09/11 03:13:19;;;;;;;6.65;6.03;;;17.80;99.90;;;;;;944950;147;27352;-75
2023/09/11 03:15:46;;;;;;;7.53;5.70;;;17.80;99.90;;;;;;949979;147;27404;-75
2023/09/11 03:18:12;;;;;;;6.55;5.95;;;17.80;99.90;;;;;;952319;147;27395;-75
2023/09/11 03:20:39;;;;;;;7.97;7.17;;;17.80;99.90;;;;;;953845;146;27342;-75
2023/09/11 03:23:06;;;;;;;7.35;6.60;;;17.80;99.90;;;;;;937310;149;27494;-75
2023/09/11 03:25:35;;;;;;;6.87;6.20;;;17.80;99.90;;;;;;932289;150;27303;-75
2023/09/11 03:28:02;;;;;;;7.08;6.47;;;17.70;99.90;;;;;;950229;147;27425;-75
2023/09/11 03:30:28;;;;;;;7.15;5.78;;;17.70;99.90;;;;;;932412;150;27370;-75
2023/09/11 03:32:55;;;;;;;7.20;6.40;;;17.60;99.90;;;;;;934227;150;27456;-75
2023/09/11 03:35:22;;;;;;;6.58;5.97;;;17.60;99.90;;;;;;932895;149;27325;-75
2023/09/11 03:37:48;;;;;;;6.25;5.67;;;17.60;99.90;;;;;;947396;147;27270;-75
2023/09/11 03:40:15;;;;;;;6.00;5.40;;;17.50;99.90;;;;;;942308;148;27372;-75
2023/09/11 03:42:41;;;;;;;6.25;5.65;;;17.40;99.90;;;;;;950129;147;27433;-75
2023/09/11 03:45:08;;;;;;;7.67;6.03;;;17.40;99.90;;;;;;952240;146;27454;-75
2023/09/11 03:47:34;;;;;;;5.80;5.30;;;17.30;99.90;;;;;;950519;147;27431;-75
2023/09/11 03:50:04;;;;;;;5.90;5.37;;;17.30;99.90;;;;;;934689;149;27338;-75
2023/09/11 03:52:30;;;;;;;6.40;5.72;;;17.20;99.90;;;;;;930858;150;27362;-75
2023/09/11 03:54:57;;;;;;;6.17;4.83;;;17.20;99.90;;;;;;951454;147;28757;-75
2023/09/11 03:57:24;;;;;;;5.80;5.30;;;17.10;99.90;;;;;;934052;149;27383;-75
2023/09/11 03:59:50;;;;;;;5.92;5.17;;;17.10;99.90;;;;;;933598;150;27341;-76
2023/09/11 04:02:17;;;;;;;6.28;5.67;;;17.00;99.90;;;;;;933909;149;27369;-75
2023/09/11 04:04:43;;;;;;;5.72;5.15;;;17.00;99.90;;;;;;950469;147;27491;-76
2023/09/11 04:07:10;;;;;;;5.83;5.42;;;17.00;99.90;;;;;;950949;147;27317;-76
2023/09/11 04:09:36;;;;;;;5.60;5.10;;;16.90;99.90;;;;;;930589;150;27371;-76
2023/09/11 04:12:03;;;;;;;6.00;5.20;;;16.90;99.90;;;;;;930610;150;27415;-75
2023/09/11 04:14:30;;;;;;;11.48;7.12;;;16.90;99.90;;;;;;929328;150;27509;-76
2023/09/11 04:16:56;;;;;;;5.95;5.37;;;16.80;99.90;;;;;;927206;151;27246;-76
2023/09/11 04:19:23;;;;;;;5.83;5.33;;;16.80;99.90;;;;;;944530;148;27785;-76
2023/09/11 04:21:49;;;;;;;5.62;5.12;;;16.80;99.90;;;;;;945051;149;27347;-76
2023/09/11 04:24:16;;;;;;;5.58;5.10;;;16.80;99.90;;;;;;945481;149;27429;-76
2023/09/11 04:26:44;;;;;;;6.70;5.87;;;16.70;99.90;;;;;;932603;151;28390;-75
2023/09/11 04:29:12;;;;;;;6.20;5.58;;;16.70;99.90;;;;;;929909;151;27322;-76
2023/09/11 04:31:39;;;;;;;5.15;4.70;;;16.70;99.90;;;;;;927375;153;27455;-75
2023/09/11 04:34:05;;;;;;;6.15;5.47;;;16.70;99.90;;;;;;926139;151;27419;-76
2023/09/11 04:36:32;;;;;;;5.45;4.92;;;16.70;99.90;;;;;;927377;153;27486;-75
2023/09/11 04:38:58;;;;;;;5.75;5.25;;;16.70;99.90;;;;;;930136;152;27702;-76
2023/09/11 04:41:25;;;;;;;7.55;5.35;;;16.70;99.90;;;;;;948665;149;27373;-76
2023/09/11 04:43:52;;;;;;;8.83;5.72;;;16.70;99.90;;;;;;946345;148;27307;-75
2023/09/11 04:46:18;;;;;;;5.83;5.30;;;16.70;99.90;;;;;;944693;148;27336;-75
2023/09/11 04:48:45;;;;;;;7.10;5.30;;;16.70;99.90;;;;;;936811;151;27419;-75
2023/09/11 04:51:11;;;;;;;6.33;5.72;;;16.80;99.90;;;;;;937646;149;27330;-75
2023/09/11 04:53:38;;;;;;;6.65;6.00;;;16.80;99.90;;;;;;948202;149;27418;-75
2023/09/11 04:56:04;;;;;;;6.67;6.08;;;16.70;99.90;;;;;;948309;148;27788;-76
2023/09/11 04:58:31;;;;;;;6.12;5.53;;;16.70;99.90;;;;;;946159;149;27428;-76
2023/09/11 05:00:58;;;;;;;6.03;5.47;;;16.70;99.90;;;;;;929950;151;27339;-76
2023/09/11 05:03:24;;;;;;;6.92;5.53;;;16.70;99.90;;;;;;927629;151;27354;-75
2023/09/11 05:05:51;;;;;;;6.62;5.95;;;16.70;99.90;;;;;;927871;154;27363;-75
2023/09/11 05:08:17;;;;;;;6.50;5.33;;;16.70;99.90;;;;;;940096;149;27350;-75
2023/09/11 05:10:44;;;;;;;7.53;5.75;;;16.70;99.90;;;;;;948228;149;27321;-75
2023/09/11 05:13:11;;;;;;;6.62;5.72;;;16.70;99.90;;;;;;923964;152;27351;-75
2023/09/11 05:15:37;;;;;;;6.22;5.53;;;16.70;99.90;;;;;;933434;152;27287;-75
2023/09/11 05:18:04;;;;;;;10.55;6.08;;;16.70;99.90;;;;;;918447;153;27391;-75
2023/09/11 05:20:30;;;;;;;7.15;6.22;;;16.70;99.90;;;;;;927358;150;27396;-75
2023/09/11 05:22:57;;;;;;;6.60;6.00;;;16.80;99.90;;;;;;946864;148;27291;-75
2023/09/11 05:25:24;;;;;;;6.80;6.00;;;16.80;99.90;;;;;;923474;152;27797;-75
2023/09/11 05:27:50;;;;;;;7.17;6.35;;;16.90;99.90;;;;;;934648;151;27333;-75
2023/09/11 05:30:17;;;;;;;7.17;6.35;;;17.00;99.90;;;;;;937731;149;27407;-75
2023/09/11 05:32:47;;;;;;;6.17;5.50;;;17.20;99.90;;;;;;946811;149;27246;-75
2023/09/11 05:35:10;;;;;;;6.42;5.80;;;17.40;99.90;;;;;;933242;152;27407;-75
2023/09/11 05:37:36;;;;;;;6.05;5.55;;;17.70;99.90;;;;;;934732;151;27370;-75
2023/09/11 05:40:07;;;;;;;5.95;5.40;;;18.10;99.90;;;;;;931017;151;27410;-75
2023/09/11 05:42:30;;;;;;;7.37;5.67;;;18.50;99.90;;;;;;937020;149;27336;-75
2023/09/11 05:44:56;;;;;;;7.53;6.10;;;19.00;99.90;;;;;;943736;149;27429;-75
2023/09/11 05:47:23;;;;;;;8.30;5.22;;;19.50;99.90;;;;;;929812;152;27408;-75
2023/09/11 05:49:49;;;;;;;4.95;4.45;;;20.00;99.90;;;;;;943656;150;27410;-75
2023/09/11 05:52:16;;;;;;;7.37;5.08;;;20.50;99.90;;;;;;934909;151;28000;-75
2023/09/11 05:54:43;;;;;;;5.40;4.95;;;21.10;99.90;;;;;;936018;149;27331;-75
2023/09/11 05:57:10;;;;;;;5.70;5.00;;;21.60;99.90;;;;;;935267;150;27354;-75
2023/09/11 05:59:37;;;;;;;5.85;4.47;;;22.20;99.90;;;;;;936053;149;27376;-75
2023/09/11 06:02:02;;;;;;;5.75;5.15;;;22.80;99.90;;;;;;934592;149;27868;-75
2023/09/11 06:04:30;;;;;;;5.70;5.10;;;23.40;99.90;;;;;;935188;152;27416;-75
2023/09/11 06:06:56;;;;;;;5.67;5.28;;;24.00;99.90;;;;;;941324;149;27323;-75
2023/09/11 06:09:22;;;;;;;6.47;5.08;;;24.60;99.90;;;;;;943531;149;27345;-75
2023/09/11 06:11:49;;;;;;;5.30;4.80;;;25.20;99.90;;;;;;929258;151;27449;-75
2023/09/11 06:14:15;;;;;;;8.85;5.70;;;25.80;99.90;;;;;;942598;149;27369;-75
2023/09/11 06:16:42;;;;;;;5.87;4.78;;;26.40;98.10;;;;;;933284;149;27713;-75
2023/09/11 06:19:09;;;;;;;6.45;5.25;;;27.00;95.40;;;;;;943633;148;27334;-75
2023/09/11 06:21:35;;;;;;;5.62;5.12;;;27.50;93.30;;;;;;952054;146;27340;-75
2023/09/11 06:24:04;;;;;;;5.65;5.15;;;28.10;91.50;;;;;;958015;146;27372;-75
2023/09/11 06:26:28;;;;;;;6.58;5.05;;;28.50;88.20;;;;;;949193;146;27374;-75
2023/09/11 06:28:55;;;;;;;5.60;5.10;;;29.10;85.50;;;;;;951954;147;27307;-75
2023/09/11 06:31:22;;;;;;;5.45;4.90;;;29.60;82.40;;;;;;950836;147;27449;-75
2023/09/11 06:33:48;;;;;;;5.30;4.78;;;30.00;79.90;;;;;;934033;149;27447;-75
2023/09/11 06:36:15;;;;;;;6.15;5.10;;;30.50;78.50;;;;;;948336;147;27394;-75
2023/09/11 06:38:41;;;;;;;5.58;4.83;;;30.90;75.60;;;;;;932042;149;27408;-76
2023/09/11 06:41:08;;;;;;;5.75;4.70;;;31.40;73.80;;;;;;933803;149;27339;-75
2023/09/11 06:43:36;;;;;;;5.40;4.87;;;31.90;72.40;;;;;;927222;150;27387;-75
2023/09/11 06:46:01;;;;;;;5.90;5.30;;;32.40;71.00;;;;;;945646;149;27335;-75
2023/09/11 06:48:28;;;;;;;5.45;4.83;;;32.80;69.30;;;;;;945903;149;27418;-75
2023/09/11 06:50:54;;;;;;;4.83;4.35;;;33.30;67.60;;;;;;945526;148;27769;-75
2023/09/11 06:53:21;;;;;;;5.95;4.78;;;33.70;65.90;;;;;;932323;147;26273;-75
2023/09/11 06:55:47;;;;;;;5.25;4.60;;;34.20;64.50;;;;;;932214;150;27370;-75
2023/09/11 06:58:14;;;;;;;5.20;4.70;;;34.60;63.80;;;;;;939298;149;26309;-75
2023/09/11 07:00:41;;;;;;;5.58;4.45;;;35.00;62.40;;;;;;946443;147;26237;-76
2023/09/11 07:03:07;;;;;;;5.10;4.60;;;35.40;61.00;;;;;;945000;147;26315;-76
2023/09/11 07:05:34;;;;;;;5.55;4.80;;;35.80;59.90;;;;;;932933;149;26274;-75
2023/09/11 07:08:00;;;;;;;4.83;4.35;;;36.20;59.00;;;;;;951705;147;26167;-75
2023/09/11 07:10:27;;;;;;;6.72;4.90;;;36.50;58.10;;;;;;948892;147;26293;-76
2023/09/11 07:12:53;;;;;;;4.67;4.28;;;36.80;57.10;;;;;;946179;148;26235;-76
2023/09/11 07:15:20;;;;;;;10.32;4.87;;;37.20;56.60;;;;;;935157;147;26265;-76
2023/09/11 07:17:48;;;;;;;4.62;4.22;;;37.50;56.00;;;;;;946969;147;28698;-75
2023/09/11 07:20:13;;;;;;;5.30;4.20;;;37.80;55.40;;;;;;944913;147;26259;-75
2023/09/11 07:22:40;;;;;;;6.47;4.50;;;38.20;54.60;;;;;;933382;149;26218;-76
2023/09/11 07:25:11;;;;;;;4.72;4.33;;;38.60;54.00;;;;;;941941;147;26326;-75
2023/09/11 07:27:33;;;;;;;6.28;4.33;;;38.90;53.00;;;;;;936306;148;26286;-75
2023/09/11 07:30:00;;;;;;;6.05;4.00;;;39.10;52.10;;;;;;938263;147;26218;-75
2023/09/11 07:32:26;;;;;;;3.95;3.55;;;39.40;51.60;;;;;;952941;147;26226;-75
2023/09/11 07:34:53;;;;;;;5.75;4.12;;;39.60;51.20;;;;;;954820;147;26228;-76
2023/09/11 07:37:19;;;;;;;5.58;4.58;;;39.80;50.50;;;;;;909592;153;26305;-76
2023/09/11 07:39:46;;;;;;;5.45;3.83;;;40.00;50.10;;;;;;921520;151;26266;-76
2023/09/11 07:42:13;;;;;;;4.72;4.25;;;40.30;49.60;;;;;;921065;152;26364;-76
2023/09/11 07:44:39;;;;;;;5.72;3.80;;;40.50;49.30;;;;;;946910;146;26224;-76
2023/09/11 07:47:06;;;;;;;3.50;3.20;;;40.80;49.00;;;;;;944652;147;26243;-76
2023/09/11 07:49:32;;;;;;;5.62;3.40;;;41.00;48.40;;;;;;939998;147;26209;-76
2023/09/11 07:51:59;;;;;;;6.37;3.83;;;41.30;47.80;;;;;;940715;147;26574;-76
2023/09/11 07:54:25;;;;;;;4.30;3.90;;;41.60;47.30;;;;;;941406;146;26191;-76
2023/09/11 07:56:55;;;;;;;4.42;3.50;;;41.80;46.70;;;;;;942349;146;26322;-75
2023/09/11 07:59:22;;;;;;;4.65;3.52;;;42.10;46.20;;;;;;939928;146;26300;-75
2023/09/11 08:01:48;;;;;;;3.77;3.37;;;42.30;45.80;;;;;;940286;147;26198;-75
2023/09/11 08:04:15;;;;;;;4.00;3.60;;;42.50;45.00;;;;;;941274;147;26285;-75
2023/09/11 08:06:41;;;;;;;5.17;3.85;;;42.80;44.80;;;;;;941403;148;26296;-75
2023/09/11 08:09:08;;;;;;;8.10;3.60;;;43.00;44.30;;;;;;941594;148;26278;-75
2023/09/11 08:11:39;;;;;;;7.85;3.77;;;43.10;43.70;;;;;;938761;146;26259;-76
2023/09/11 08:14:01;;;;;;;7.92;4.05;;;43.30;43.40;;;;;;941436;148;26214;-76
2023/09/11 08:16:28;;;;;;;3.98;3.58;;;43.50;43.10;;;;;;942886;146;26222;-75
2023/09/11 08:18:54;;;;;;;5.08;3.70;;;43.70;42.40;;;;;;939341;147;26238;-75
2023/09/11 08:21:21;;;;;;;4.62;3.50;;;43.80;42.10;;;;;;939711;147;26301;-76
2023/09/11 08:23:47;;;;;;;3.30;3.00;;;44.00;41.60;;;;;;941651;147;26322;-76
2023/09/11 08:26:14;;;;;;;3.75;3.40;;;44.10;41.10;;;;;;951150;146;26261;-76
2023/09/11 08:28:41;;;;;;;4.12;3.52;;;44.30;40.60;;;;;;953119;146;26267;-75
2023/09/11 08:31:07;;;;;;;5.58;3.42;;;44.50;40.40;;;;;;931196;150;26255;-76
2023/09/11 08:33:34;;;;;;;4.95;3.90;;;44.50;39.80;;;;;;930253;150;26224;-75
2023/09/11 08:36:00;;;;;;;3.70;3.37;;;44.60;39.30;;;;;;932713;150;26239;-75
2023/09/11 08:38:27;;;;;;;4.50;3.75;;;44.70;39.30;;;;;;936950;149;26281;-76
2023/09/11 08:40:54;;;;;;;3.77;3.42;;;44.70;38.90;;;;;;954664;146;28293;-76
2023/09/11 08:43:24;;;;;;;4.50;3.52;;;44.70;38.60;;;;;;937954;149;26383;-76
2023/09/11 08:45:47;;;;;;;4.03;3.42;;;44.70;38.60;;;;;;954282;146;26162;-76
2023/09/11 08:48:13;;;;;;;3.20;2.95;;;44.70;38.40;;;;;;937783;149;26334;-76
2023/09/11 08:50:40;;;;;;;3.87;3.58;;;44.90;38.30;;;;;;954834;146;26701;-76
2023/09/11 08:53:06;;;;;;;7.00;3.60;;;45.00;37.90;;;;;;942778;148;26257;-76
2023/09/11 08:55:33;;;;;;;4.12;3.10;;;45.20;37.90;;;;;;950320;146;26246;-76
2023/09/11 08:58:00;;;;;;;3.62;3.02;;;45.20;37.50;;;;;;937903;149;26353;-76
2023/09/11 09:00:28;;;;;;;4.78;3.42;;;45.40;37.20;;;;;;936182;149;26266;-76
2023/09/11 09:02:53;;;;;;;4.28;3.25;;;45.50;37.30;;;;;;936923;149;26329;-76
2023/09/11 09:05:19;;;;;;;3.50;3.20;;;45.60;37.00;;;;;;936761;148;26339;-76
2023/09/11 09:07:46;;;;;;;4.25;3.05;;;45.70;36.90;;;;;;937832;149;26196;-76
2023/09/11 09:10:13;;;;;;;2.95;2.75;;;46.00;36.60;;;;;;937661;149;26316;-76
2023/09/11 09:12:39;;;;;;;3.98;2.98;;;46.10;36.00;;;;;;955052;146;27110;-76
2023/09/11 09:15:06;;;;;;;5.05;3.25;;;46.30;35.20;;;;;;955421;146;26209;-76
2023/09/11 09:17:33;;;;;;;8.43;3.30;;;46.40;35.20;;;;;;955058;146;26418;-76
2023/09/11 09:19:59;;;;;;;5.30;3.27;;;46.40;34.70;;;;;;943382;148;26658;-76
2023/09/11 09:22:26;;;;;;;6.65;3.05;;;46.50;34.40;;;;;;955445;146;26334;-74
2023/09/11 09:24:52;;;;;;;3.25;2.98;;;46.50;34.30;;;;;;936862;148;26285;-74
2023/09/11 09:27:19;;;;;;;11.10;3.98;;;46.50;34.00;;;;;;934125;151;26277;-74
2023/09/11 09:29:47;;;;;;;3.37;3.08;;;46.40;33.90;;;;;;929462;151;26328;-74
2023/09/11 09:32:12;;;;;;;3.10;2.80;;;46.40;33.90;;;;;;939980;151;26277;-74
2023/09/11 09:34:39;;;;;;;4.70;2.92;;;46.40;33.90;;;;;;934174;152;26282;-74
2023/09/11 09:37:05;;;;;;;5.60;3.30;;;46.30;33.90;;;;;;933894;152;26343;-74
2023/09/11 09:39:33;;;;;;;2.62;2.52;;;46.30;33.50;;;;;;934172;152;26193;-74
2023/09/11 09:41:59;;;;;;;3.25;2.83;;;46.20;33.40;;;;;;933368;149;26323;-74
2023/09/11 09:44:31;;;;;;;3.27;3.08;;;46.10;33.30;;;;;;932854;149;26285;-74
2023/09/11 09:47:10;;;;;;;3.35;3.05;;;45.80;33.20;;;;;;932113;149;26367;-74
2023/09/11 09:49:49;;;;;;;4.40;3.17;;;45.60;33.20;;;;;;933784;151;26302;-74
2023/09/11 09:52:15;;;;;;;3.25;2.87;;;45.40;33.20;;;;;;932480;151;26803;-74
2023/09/11 09:54:45;;;;;;;4.45;3.10;;;45.00;33.10;;;;;;934081;149;26362;-74
2023/09/11 09:57:11;;;;;;;3.33;3.05;;;44.70;33.00;;;;;;932638;149;26245;-74
2023/09/11 09:59:38;;;;;;;3.65;3.30;;;44.30;33.20;;;;;;931471;152;26217;-74
2023/09/11 10:02:04;;;;;;;3.65;3.17;;;43.90;33.30;;;;;;934799;149;26326;-74
2023/09/11 10:04:31;;;;;;;4.08;3.20;;;43.50;33.40;;;;;;933124;152;26347;-74
2023/09/11 10:06:59;;;;;;;4.08;3.50;;;43.10;33.40;;;;;;933075;149;26403;-73
2023/09/11 10:09:24;;;;;;;3.75;3.45;;;42.80;33.70;;;;;;933556;151;26269;-74
2023/09/11 10:11:51;;;;;;;3.15;2.92;;;42.40;33.60;;;;;;934537;149;26306;-74
2023/09/11 10:14:17;;;;;;;3.87;3.47;;;42.20;33.90;;;;;;933450;152;26291;-74
2023/09/11 10:16:44;;;;;;;3.67;3.33;;;41.80;33.90;;;;;;933887;149;26282;-73
2023/09/11 10:19:11;;;;;;;3.65;3.35;;;41.40;34.10;;;;;;933057;152;28444;-74
2023/09/11 10:21:37;;;;;;;4.17;3.70;;;41.00;34.20;;;;;;933755;151;26240;-73
2023/09/11 10:24:04;;;;;;;3.25;3.05;;;40.70;34.30;;;;;;934709;151;26347;-74
2023/09/11 10:29:55;;;;;;;4.42;3.52;;;39.90;34.80;;;;;;932084;149;26294;-74
2023/09/11 10:32:22;;;;;;;4.00;3.52;;;39.40;35.30;;;;;;924566;150;27593;-74
2023/09/11 10:34:48;;;;;;;3.87;3.58;;;39.10;35.80;;;;;;926367;151;26378;-73
2023/09/11 10:37:15;;;;;;;3.90;3.60;;;38.70;35.90;;;;;;926137;150;26275;-74
2023/09/11 10:39:41;;;;;;;3.42;3.12;;;38.60;36.30;;;;;;927881;150;26225;-74
2023/09/11 10:42:08;;;;;;;4.15;3.65;;;38.30;36.50;;;;;;915386;151;26278;-74
2023/09/11 10:44:35;;;;;;;5.42;3.75;;;38.10;36.50;;;;;;903634;152;26325;-73
2023/09/11 10:47:01;;;;;;;3.87;3.58;;;37.90;36.60;;;;;;924495;151;27387;-73
2023/09/11 10:49:28;;;;;;;4.20;3.80;;;37.70;36.90;;;;;;930656;149;27368;-74
2023/09/11 10:51:54;;;;;;;4.22;3.83;;;37.50;37.10;;;;;;927833;150;26274;-74
2023/09/11 10:54:21;;;;;;;4.10;3.80;;;37.30;37.50;;;;;;930943;149;26290;-74
2023/09/11 10:56:50;;;;;;;4.87;3.75;;;37.20;37.90;;;;;;932016;151;27391;-76
2023/09/11 10:59:19;;;;;;;4.22;3.83;;;37.00;38.10;;;;;;948357;147;27266;-76
2023/09/11 11:01:46;;;;;;;3.92;3.62;;;36.80;38.50;;;;;;947569;148;27465;-76
2023/09/11 11:04:12;;;;;;;3.95;3.58;;;36.60;38.60;;;;;;935657;151;26449;-75
2023/09/11 11:06:39;;;;;;;4.55;3.50;;;36.50;38.80;;;;;;918774;151;27354;-76
2023/09/11 11:09:06;;;;;;;3.87;3.58;;;36.30;39.00;;;;;;923206;151;27512;-76
2023/09/11 11:11:32;;;;;;;6.47;3.95;;;36.20;39.00;;;;;;936208;151;27369;-76
2023/09/11 11:14:22;;;;;;;3.60;3.30;;;36.10;39.10;;;;;;926646;151;27386;-76
2023/09/11 11:16:55;;;;;;;4.08;3.77;;;35.90;39.00;;;;;;914177;153;27389;-76
2023/09/11 11:19:24;;;;;;;4.50;3.55;;;35.80;39.20;;;;;;930195;152;27493;-76
2023/09/11 11:21:51;;;;;;;4.17;3.67;;;35.70;39.30;;;;;;919296;148;27446;-76
2023/09/11 11:24:18;;;;;;;4.00;3.62;;;35.60;39.40;;;;;;927871;148;27361;-76
2023/09/11 11:26:44;;;;;;;3.62;3.25;;;35.60;39.60;;;;;;927559;151;27445;-76
2023/09/11 11:29:11;;;;;;;3.58;3.17;;;35.50;39.60;;;;;;928571;150;27437;-76
2023/09/11 11:31:37;;;;;;;6.00;4.00;;;35.40;39.90;;;;;;934564;150;27451;-76
2023/09/11 11:34:04;;;;;;;5.50;3.77;;;35.30;40.00;;;;;;934310;149;27447;-76
2023/09/11 11:36:31;;;;;;;3.87;3.30;;;35.20;39.80;;;;;;933798;152;27466;-76
2023/09/11 11:38:59;;;;;;;4.92;3.27;;;35.20;39.80;;;;;;933890;152;27372;-76
2023/09/11 11:41:24;;;;;;;5.50;3.65;;;35.20;39.70;;;;;;934361;149;27420;-76
2023/09/11 11:43:50;;;;;;;6.12;3.92;;;35.10;39.90;;;;;;931973;152;27360;-76
2023/09/11 11:46:17;;;;;;;6.15;3.42;;;35.00;40.00;;;;;;932644;149;27806;-76
2023/09/11 11:48:44;;;;;;;4.65;3.67;;;35.00;39.90;;;;;;932232;150;27397;-76
2023/09/11 11:51:10;;;;;;;5.80;3.35;;;34.90;39.80;;;;;;949051;147;27320;-76
2023/09/11 11:53:38;;;;;;;10.18;3.22;;;35.00;40.10;;;;;;949847;150;27449;-76
2023/09/11 11:56:04;;;;;;;7.42;4.10;;;34.90;39.90;;;;;;933038;149;28774;-76
2023/09/11 11:58:30;;;;;;;5.97;3.40;;;34.90;40.10;;;;;;933498;152;27331;-76
2023/09/11 12:00:59;;;;;;;7.40;3.62;;;34.90;40.30;;;;;;933856;149;27337;-76
2023/09/11 12:03:23;;;;;;;5.80;3.55;;;34.80;40.00;;;;;;923197;151;27487;-76
2023/09/11 12:05:50;;;;;;;5.58;3.33;;;34.80;39.90;;;;;;931975;151;27391;-78
2023/09/11 12:08:16;;;;;;;6.33;3.52;;;34.80;40.20;;;;;;932842;149;27399;-78
2023/09/11 12:10:48;;;;;;;5.87;3.62;;;34.80;40.50;;;;;;931851;149;27338;-75
2023/09/11 12:13:15;;;;;;;6.87;4.10;;;34.80;40.70;;;;;;921362;151;27358;-78
2023/09/11 12:15:41;;;;;;;5.35;3.50;;;34.80;40.70;;;;;;945849;149;27375;-79
2023/09/11 12:18:08;;;;;;;4.25;3.67;;;34.80;40.90;;;;;;928789;153;27430;-79
2023/09/11 12:20:35;;;;;;;7.53;3.70;;;34.70;40.60;;;;;;930522;148;28247;-78
2023/09/11 12:23:01;;;;;;;6.25;3.87;;;34.70;40.60;;;;;;932021;151;27359;-78
2023/09/11 12:25:28;;;;;;;8.50;3.33;;;34.70;40.60;;;;;;933847;148;27794;-77
2023/09/11 12:27:54;;;;;;;12.88;3.72;;;34.70;40.60;;;;;;929717;152;27323;-78
2023/09/11 12:30:21;;;;;;;9.45;3.33;;;34.60;40.50;;;;;;935499;148;27428;-78
2023/09/11 12:32:48;;;;;;;9.43;3.80;;;34.60;40.70;;;;;;947262;146;27434;-75
2023/09/11 12:35:14;;;;;;;8.90;3.58;;;34.50;40.60;;;;;;937048;149;27357;-79
2023/09/11 12:37:41;;;;;;;10.95;4.45;;;34.50;40.90;;;;;;934355;149;27391;-78
2023/09/11 12:40:09;;;;;;;6.72;4.00;;;34.50;40.90;;;;;;937505;148;27332;-78
2023/09/11 12:42:34;;;;;;;7.70;3.75;;;34.50;41.20;;;;;;932726;149;27304;-76
2023/09/11 12:45:00;;;;;;;5.92;3.58;;;34.50;41.30;;;;;;930896;150;27384;-78
2023/09/11 12:47:27;;;;;;;7.53;3.70;;;34.50;41.40;;;;;;937005;149;28082;-78